createdAt,value
2018-06-15T00:04:10.311Z,61.20
2018-06-15T00:09:13.988Z,62.20
2018-06-15T00:14:17.725Z,62.90
2018-06-15T00:19:21.416Z,62.90
2018-06-15T00:24:25.223Z,62.90
2018-06-15T00:29:28.847Z,63.20
2018-06-15T00:34:32.487Z,62.80
2018-06-15T00:39:36.126Z,63.50
2018-06-15T00:44:39.804Z,62.60
2018-06-15T00:49:43.449Z,63.50
2018-06-15T00:54:47.469Z,62.80
2018-06-15T00:59:51.158Z,62.90
2018-06-15T01:04:54.856Z,63.30
2018-06-15T01:09:58.700Z,63.70
2018-06-15T01:15:02.737Z,63.90
2018-06-15T01:20:06.399Z,64.30
2018-06-15T01:25:10.078Z,64.00
2018-06-15T01:30:15.589Z,63.90
2018-06-15T01:35:19.251Z,64.10
2018-06-15T01:40:24.068Z,63.90
2018-06-15T01:45:27.704Z,64.50
2018-06-15T01:50:31.519Z,63.90
2018-06-15T01:55:36.092Z,64.00
2018-06-15T02:00:39.792Z,63.90
2018-06-15T02:05:43.445Z,63.40
2018-06-15T02:10:47.787Z,64.40
2018-06-15T02:15:51.824Z,63.70
2018-06-15T02:20:55.516Z,63.90
2018-06-15T02:26:00.210Z,64.90
2018-06-15T02:31:04.025Z,65.40
2018-06-15T02:36:07.694Z,65.60
2018-06-15T02:41:12.271Z,65.40
2018-06-15T02:46:16.412Z,65.10
2018-06-15T02:56:24.020Z,64.30
2018-06-15T03:01:28.460Z,63.70
2018-06-15T03:06:32.844Z,64.30
2018-06-15T03:11:36.498Z,65.00
2018-06-15T03:16:40.392Z,64.70
2018-06-15T03:21:44.609Z,65.40
2018-06-15T03:26:49.183Z,65.20
2018-06-15T03:31:52.838Z,65.10
2018-06-15T03:36:56.559Z,66.00
2018-06-15T03:42:00.235Z,66.00
2018-06-15T03:47:04.060Z,66.00
2018-06-15T03:52:09.606Z,65.70
2018-06-15T03:57:13.294Z,65.10
2018-06-15T04:02:20.042Z,65.30
2018-06-15T04:07:23.848Z,66.30
2018-06-15T04:12:27.941Z,66.70
2018-06-15T04:17:31.615Z,66.80
2018-06-15T04:22:35.804Z,66.90
2018-06-15T04:27:39.513Z,66.80
2018-06-15T04:32:43.530Z,66.50
2018-06-15T04:37:47.628Z,66.50
2018-06-15T04:42:51.290Z,66.20
2018-06-15T04:47:54.989Z,67.10
2018-06-15T04:52:58.791Z,67.90
2018-06-15T04:58:05.200Z,66.60
2018-06-15T05:03:11.605Z,65.70
2018-06-15T05:08:15.259Z,65.50
2018-06-15T05:13:18.983Z,65.10
2018-06-15T05:18:22.677Z,64.20
2018-06-15T05:23:26.493Z,63.00
2018-06-15T05:28:30.167Z,62.00
2018-06-15T05:33:33.835Z,61.70
2018-06-15T05:38:37.623Z,62.50
2018-06-15T05:43:41.703Z,61.70
2018-06-15T05:48:45.387Z,61.60
2018-06-15T05:53:49.184Z,61.60
2018-06-15T05:58:52.928Z,61.10
2018-06-15T06:03:57.089Z,60.50
2018-06-15T06:09:00.801Z,60.00
2018-06-15T06:14:04.524Z,59.60
2018-06-15T06:19:08.214Z,59.20
2018-06-15T06:24:11.905Z,58.10
2018-06-15T06:29:16.021Z,58.20
2018-06-15T06:34:20.655Z,57.60
2018-06-15T06:39:24.352Z,57.50
2018-06-15T06:44:28.057Z,56.90
2018-06-15T06:49:31.745Z,56.20
2018-06-15T06:54:36.252Z,56.10
2018-06-15T06:59:39.977Z,56.00
2018-06-15T07:09:47.172Z,57.50
2018-06-15T07:14:54.474Z,57.10
2018-06-15T07:19:58.331Z,57.20
2018-06-15T07:25:02.036Z,57.10
2018-06-15T07:30:05.917Z,56.40
2018-06-15T07:35:10.053Z,56.20
2018-06-15T07:40:13.784Z,57.30
2018-06-15T07:45:17.524Z,57.40
2018-06-15T07:50:21.623Z,57.70
2018-06-15T07:55:27.599Z,57.70
2018-06-15T08:00:32.040Z,58.00
2018-06-15T08:05:36.078Z,58.10
2018-06-15T08:10:40.924Z,58.90
2018-06-15T08:15:44.697Z,57.70
2018-06-15T08:20:48.726Z,56.60
2018-06-15T08:25:52.558Z,55.90
2018-06-15T08:30:56.504Z,55.40
2018-06-15T08:36:00.267Z,55.50
2018-06-15T08:41:04.332Z,55.80
2018-06-15T08:46:08.059Z,55.10
2018-06-15T08:51:11.737Z,56.10
2018-06-15T08:56:16.131Z,56.20
2018-06-15T09:01:20.318Z,55.00
2018-06-15T09:06:24.334Z,56.00
2018-06-15T09:11:28.901Z,55.00
2018-06-15T09:16:32.582Z,54.20
2018-06-15T09:21:36.976Z,51.20
2018-06-15T09:26:41.790Z,52.30
2018-06-15T09:31:45.810Z,52.60
2018-06-15T09:36:50.109Z,49.40
2018-06-15T09:41:53.822Z,43.30
2018-06-15T09:46:57.504Z,44.70
2018-06-15T09:52:02.398Z,44.70
2018-06-15T09:57:06.191Z,42.30
2018-06-15T10:02:10.356Z,41.70
2018-06-15T10:07:14.985Z,44.20
2018-06-15T10:12:19.056Z,45.80
2018-06-15T10:17:22.747Z,45.10
2018-06-15T10:22:26.488Z,41.70
2018-06-15T10:27:30.123Z,42.70
2018-06-15T10:32:33.777Z,41.50
2018-06-15T10:37:37.522Z,41.30
2018-06-15T10:42:41.799Z,41.30
2018-06-15T10:47:45.890Z,41.10
2018-06-15T10:52:49.602Z,40.80
2018-06-15T10:57:53.268Z,40.90
2018-06-15T11:02:57.033Z,41.20
2018-06-15T11:08:00.831Z,39.20
2018-06-15T11:13:04.557Z,41.70
2018-06-15T11:18:08.693Z,39.10
2018-06-15T11:23:12.611Z,39.00
2018-06-15T11:28:16.280Z,35.80
2018-06-15T11:33:24.102Z,38.80
2018-06-15T11:38:29.657Z,38.50
2018-06-15T11:43:33.370Z,37.70
2018-06-15T11:48:37.397Z,36.50
2018-06-15T11:53:41.313Z,36.00
2018-06-15T11:58:45.641Z,35.00
2018-06-15T12:03:49.332Z,36.60
2018-06-15T12:08:53.053Z,36.70
2018-06-15T12:13:57.454Z,36.00
2018-06-15T12:19:01.160Z,35.90
2018-06-15T12:24:05.059Z,35.50
2018-06-15T12:34:12.921Z,32.60
2018-06-15T12:39:16.597Z,33.60
2018-06-15T12:44:20.974Z,34.30
2018-06-15T12:49:24.669Z,32.70
2018-06-15T12:54:28.524Z,31.60
2018-06-15T12:59:35.427Z,32.60
2018-06-15T13:04:39.218Z,32.70
2018-06-15T13:09:42.998Z,30.90
2018-06-15T13:14:47.424Z,30.30
2018-06-15T13:19:51.667Z,32.20
2018-06-15T13:29:58.920Z,29.80
2018-06-15T13:45:09.492Z,30.30
2018-06-15T13:55:17.365Z,27.90
2018-06-15T14:00:21.421Z,28.50
2018-06-15T14:05:25.514Z,29.00
2018-06-15T14:10:29.276Z,28.20
2018-06-15T14:15:33.444Z,28.50
2018-06-15T14:20:37.168Z,28.40
2018-06-15T14:25:40.864Z,28.00
2018-06-15T14:30:44.569Z,27.40
2018-06-15T14:35:49.251Z,27.40
2018-06-15T14:40:52.918Z,27.80
2018-06-15T14:45:56.687Z,28.00
2018-06-15T14:51:01.501Z,26.60
2018-06-15T14:56:05.171Z,27.00
2018-06-15T15:01:08.882Z,28.00
2018-06-15T15:06:13.236Z,27.60
2018-06-15T15:11:17.037Z,27.30
2018-06-15T15:16:20.719Z,27.60
2018-06-15T15:21:24.391Z,28.30
2018-06-15T15:26:28.096Z,27.50
2018-06-15T15:31:31.787Z,27.80
2018-06-15T15:36:36.421Z,27.80
2018-06-15T15:41:40.205Z,27.90
2018-06-15T15:46:43.875Z,28.00
2018-06-15T15:51:48.129Z,28.60
2018-06-15T15:56:54.820Z,28.20
2018-06-15T16:01:58.543Z,27.60
2018-06-15T16:07:02.824Z,27.40
2018-06-15T16:12:06.716Z,26.70
2018-06-15T16:17:10.464Z,26.60
2018-06-15T16:22:14.140Z,27.80
2018-06-15T16:27:17.831Z,27.30
2018-06-15T16:39:58.787Z,27.80
2018-06-15T16:45:02.476Z,29.00
2018-06-15T16:50:06.282Z,29.30
2018-06-15T16:55:12.260Z,29.30
2018-06-15T17:00:16.024Z,29.30
2018-06-15T17:05:20.259Z,29.90
2018-06-15T17:10:23.971Z,29.90
2018-06-15T17:15:28.827Z,30.30
2018-06-15T17:20:32.477Z,29.00
2018-06-15T17:25:38.920Z,29.30
2018-06-15T17:30:43.207Z,29.80
2018-06-15T17:35:47.949Z,29.40
2018-06-15T17:40:52.049Z,29.70
2018-06-15T17:45:56.408Z,30.00
2018-06-15T17:51:00.491Z,31.20
2018-06-15T17:56:04.663Z,31.20
2018-06-15T18:01:08.408Z,31.70
2018-06-15T18:06:14.216Z,33.00
2018-06-15T18:11:18.044Z,33.70
2018-06-15T18:16:23.671Z,33.80
2018-06-15T18:21:27.872Z,33.80
2018-06-15T18:26:31.721Z,34.60
2018-06-15T18:31:37.559Z,35.20
2018-06-15T18:36:41.235Z,35.70
2018-06-15T18:41:45.128Z,35.10
2018-06-15T18:46:49.811Z,35.90
2018-06-15T18:51:53.653Z,36.20
2018-06-15T18:56:57.327Z,37.40
2018-06-15T19:02:01.465Z,38.60
2018-06-15T19:07:05.395Z,39.40
2018-06-15T19:12:10.562Z,39.50
2018-06-15T19:17:14.690Z,39.50
2018-06-15T19:22:18.971Z,40.50
2018-06-15T19:27:22.915Z,43.10
2018-06-15T19:32:26.567Z,42.60
2018-06-15T19:37:30.253Z,43.40
2018-06-15T19:42:34.619Z,42.90
2018-06-15T19:47:38.314Z,43.40
2018-06-15T19:52:41.992Z,43.20
2018-06-15T19:57:45.908Z,44.80
2018-06-15T20:02:49.599Z,45.10
2018-06-15T20:07:54.126Z,45.60
2018-06-15T20:18:01.122Z,46.20
2018-06-15T20:23:05.756Z,46.90
2018-06-15T20:28:09.612Z,47.20
2018-06-15T20:33:13.399Z,47.50
2018-06-15T20:38:19.397Z,48.40
2018-06-15T20:43:25.360Z,48.00
2018-06-15T20:48:31.884Z,48.60
2018-06-15T20:53:36.360Z,47.70
2018-06-15T20:58:40.043Z,48.50
2018-06-15T21:03:43.805Z,48.70
2018-06-15T21:08:47.981Z,49.90
2018-06-15T21:13:52.387Z,50.50
2018-06-15T21:18:56.995Z,50.40
2018-06-15T21:24:01.280Z,49.60
2018-06-15T21:29:05.724Z,50.20
2018-06-15T21:34:11.938Z,50.50
2018-06-15T21:39:17.864Z,50.30
2018-06-15T21:44:21.508Z,49.60
2018-06-15T21:49:25.210Z,48.70
2018-06-15T21:54:28.860Z,49.40
2018-06-15T21:59:32.521Z,49.00
2018-06-15T22:04:36.569Z,50.70
2018-06-15T22:09:40.252Z,50.90
2018-06-15T22:14:44.285Z,51.10
2018-06-15T22:19:49.945Z,50.60
2018-06-15T22:24:55.652Z,51.80
2018-06-15T22:35:08.342Z,52.20
2018-06-15T22:40:14.056Z,52.40
2018-06-15T22:45:18.006Z,52.80
2018-06-15T22:50:21.797Z,52.20
2018-06-15T22:55:25.630Z,52.40
2018-06-15T23:00:30.060Z,52.60
2018-06-15T23:05:33.726Z,53.20
2018-06-15T23:10:37.835Z,53.40
2018-06-15T23:15:41.645Z,53.10
2018-06-15T23:20:45.485Z,53.40
2018-06-15T23:25:51.469Z,53.30
2018-06-15T23:30:55.437Z,52.80
2018-06-15T23:35:59.209Z,54.30
2018-06-15T23:41:02.865Z,54.30
2018-06-15T23:46:06.760Z,54.60
2018-06-15T23:51:10.821Z,54.80
2018-06-15T23:56:14.626Z,55.40
